Terminal Aerodrome Forecast
Issued by NWS Tampa Bay Area, FL

Current Version | Previous Version | Text Only | Print | Product List | Glossary On
Versions: 1 2 3 4 5 6 7 8 9 10 11 12 13 14 15 16
000
FTUS42 KTBW 170800 AAA
TAFFMY
TAF AMD
KFMY 170835Z 1709/1806 VRB04KT P6SM VCSH FEW025 BKN100 BKN250
     FM171200 VRB03KT P6SM VCTS SCT035CB BKN250
     FM171800 27008KT P6SM VCTS SCT020CB BKN030
     FM180200 23004KT P6SM VCTS SCT035CB BKN060=

USA.gov is the U.S. government's official web portal to all federal, state and local government web resources and services.